Time;durP1;ratioP1;P1;durP2;ratioP2;P2;SDS_P1;SDS_P2;PMS_P1;PMS_P2;Temp;Humidity;BMP_temperature;BMP_pressure;BME280_temperature;BME280_humidity;BME280_pressure;Samples;Min_cycle;Max_cycle;Signal;HPM_P1;HPM_P2
2022/03/03 00:01:50;;;;;;;15.77;8.80;;;0.90;72.40;;;;;;6264083;22;20242;-73
2022/03/03 00:04:16;;;;;;;13.50;8.57;;;0.90;71.20;;;;;;6266014;22;20377;-73
2022/03/03 00:06:42;;;;;;;15.35;8.90;;;0.80;70.60;;;;;;6264725;22;20012;-73
2022/03/03 00:09:07;;;;;;;19.20;9.45;;;0.90;71.00;;;;;;6266300;22;20022;-73
2022/03/03 00:11:33;;;;;;;15.43;9.40;;;1.00;71.00;;;;;;6237471;22;20529;-73
2022/03/03 00:13:59;;;;;;;14.23;9.07;;;1.10;70.30;;;;;;6265696;22;20733;-73
2022/03/03 00:16:26;;;;;;;17.55;10.45;;;1.30;69.40;;;;;;6266214;22;20432;-74
2022/03/03 00:18:52;;;;;;;18.88;11.30;;;1.60;68.40;;;;;;6265294;22;20496;-74
2022/03/03 00:21:18;;;;;;;19.40;11.88;;;1.70;67.40;;;;;;6265374;22;20310;-74
2022/03/03 00:23:44;;;;;;;19.10;11.70;;;1.80;66.80;;;;;;6265910;22;20730;-73
2022/03/03 00:26:10;;;;;;;19.25;11.43;;;2.00;66.40;;;;;;6265765;22;20077;-73
2022/03/03 00:28:35;;;;;;;18.58;10.48;;;1.90;66.10;;;;;;6265453;22;20000;-74
2022/03/03 00:31:01;;;;;;;16.38;10.77;;;1.90;66.90;;;;;;6265060;22;20408;-74
2022/03/03 00:33:27;;;;;;;16.58;10.45;;;1.60;67.90;;;;;;6265087;22;20016;-73
2022/03/03 00:35:53;;;;;;;13.73;9.32;;;1.10;69.80;;;;;;6265901;22;20004;-73
2022/03/03 00:38:19;;;;;;;20.95;13.32;;;0.50;71.60;;;;;;6265546;22;20008;-73
2022/03/03 00:40:44;;;;;;;23.63;14.85;;;0.20;73.40;;;;;;6265314;22;20015;-73
2022/03/03 00:43:10;;;;;;;16.20;10.10;;;0.30;74.20;;;;;;6264692;22;20097;-73
2022/03/03 00:45:36;;;;;;;17.10;11.05;;;0.50;73.10;;;;;;6265524;22;20012;-73
2022/03/03 00:48:04;;;;;;;15.50;9.88;;;0.80;72.10;;;;;;6265714;22;20416;-71
2022/03/03 00:50:30;;;;;;;16.00;9.98;;;0.70;72.40;;;;;;6264241;22;20471;-71
2022/03/03 00:52:56;;;;;;;16.52;11.55;;;0.60;73.90;;;;;;6261443;22;20032;-71
2022/03/03 00:55:22;;;;;;;17.33;10.65;;;0.70;73.30;;;;;;6264717;22;20428;-71
2022/03/03 00:57:48;;;;;;;14.05;9.30;;;0.80;72.80;;;;;;6265028;22;20246;-71
2022/03/03 01:00:14;;;;;;;18.40;11.00;;;0.90;72.40;;;;;;6265200;22;20038;-71
2022/03/03 01:02:40;;;;;;;18.55;9.73;;;0.90;73.80;;;;;;6265993;22;20006;-71
2022/03/03 01:05:06;;;;;;;15.77;9.75;;;0.90;73.60;;;;;;6263811;22;20004;-71
2022/03/03 01:07:33;;;;;;;15.23;9.90;;;0.90;73.20;;;;;;6264684;22;20087;-71
2022/03/03 01:09:59;;;;;;;17.58;9.48;;;0.70;74.10;;;;;;6263427;22;20004;-71
2022/03/03 01:12:24;;;;;;;16.83;10.30;;;0.50;74.50;;;;;;6265887;22;20082;-71
2022/03/03 01:14:50;;;;;;;16.50;10.63;;;0.30;74.70;;;;;;6264499;22;20379;-71
2022/03/03 01:17:16;;;;;;;19.13;10.43;;;0.10;76.10;;;;;;6265047;22;20718;-71
2022/03/03 01:19:42;;;;;;;14.65;9.82;;;0.00;76.90;;;;;;6264054;22;20094;-71
2022/03/03 01:22:08;;;;;;;14.25;9.85;;;-0.10;77.70;;;;;;6266452;22;20007;-71
2022/03/03 01:24:34;;;;;;;14.48;9.30;;;-0.10;78.00;;;;;;6261346;22;20003;-71
2022/03/03 01:27:00;;;;;;;16.73;10.15;;;-0.20;78.40;;;;;;6266366;22;20008;-71
2022/03/03 01:29:26;;;;;;;11.90;8.80;;;-0.10;78.20;;;;;;6264952;22;20372;-71
2022/03/03 01:31:52;;;;;;;14.60;9.45;;;-0.20;78.80;;;;;;6263850;22;20010;-71
2022/03/03 01:34:18;;;;;;;15.30;9.60;;;-0.20;79.10;;;;;;6264261;22;20023;-71
2022/03/03 01:36:43;;;;;;;15.68;9.77;;;-0.20;78.20;;;;;;6264791;22;20014;-71
2022/03/03 01:39:10;;;;;;;16.15;9.55;;;-0.10;77.30;;;;;;6264080;22;20087;-71
2022/03/03 01:41:37;;;;;;;16.08;9.75;;;-0.10;78.00;;;;;;6264292;22;20003;-71
2022/03/03 01:44:03;;;;;;;13.05;8.10;;;-0.20;77.80;;;;;;6264182;22;20022;-70
2022/03/03 01:46:30;;;;;;;14.05;9.07;;;-0.30;77.70;;;;;;6264918;22;20405;-72
2022/03/03 01:48:56;;;;;;;14.05;8.57;;;-0.50;78.60;;;;;;6264484;22;20156;-72
2022/03/03 01:51:22;;;;;;;16.50;9.32;;;-0.60;79.00;;;;;;6264096;22;20055;-72
2022/03/03 01:53:47;;;;;;;16.15;9.88;;;-0.70;80.20;;;;;;6235439;22;20020;-72
2022/03/03 01:56:13;;;;;;;14.02;9.82;;;-0.60;81.00;;;;;;6264251;22;20644;-72
2022/03/03 01:58:40;;;;;;;17.08;9.02;;;-0.50;81.20;;;;;;6264211;22;20091;-73
2022/03/03 02:01:06;;;;;;;17.30;10.15;;;-0.50;81.30;;;;;;6236505;22;20028;-72
2022/03/03 02:03:31;;;;;;;16.27;10.15;;;-0.60;80.80;;;;;;6264718;22;20631;-72
2022/03/03 02:05:57;;;;;;;22.05;10.90;;;-0.60;80.30;;;;;;6263543;22;20027;-72
2022/03/03 02:08:23;;;;;;;18.15;10.68;;;-0.70;80.40;;;;;;6265245;22;20042;-72
2022/03/03 02:10:51;;;;;;;14.35;9.65;;;-0.70;80.60;;;;;;6263080;22;20003;-72
2022/03/03 02:13:17;;;;;;;17.20;9.63;;;-0.70;81.10;;;;;;6265055;22;20016;-72
2022/03/03 02:15:54;;;;;;;18.65;11.35;;;-0.80;82.20;;;;;;6264494;22;20016;-72
2022/03/03 02:18:21;;;;;;;17.23;10.48;;;-0.80;83.50;;;;;;6264616;22;20570;-71
2022/03/03 02:20:47;;;;;;;15.40;9.25;;;-1.00;84.20;;;;;;6263781;22;20007;-72
2022/03/03 02:23:14;;;;;;;19.38;10.65;;;-1.00;83.80;;;;;;6264716;22;20341;-72
2022/03/03 02:25:39;;;;;;;20.42;10.60;;;-1.20;84.00;;;;;;6264662;22;20007;-72
2022/03/03 02:28:05;;;;;;;21.20;10.32;;;-1.50;84.90;;;;;;6262551;22;20519;-71
2022/03/03 02:30:31;;;;;;;17.65;11.00;;;-1.40;87.10;;;;;;6237972;22;20023;-71
2022/03/03 02:32:57;;;;;;;21.15;10.88;;;-1.20;85.80;;;;;;6262313;22;20015;-72
2022/03/03 02:35:22;;;;;;;26.60;11.90;;;-1.30;85.40;;;;;;6264304;22;20027;-72
2022/03/03 02:37:48;;;;;;;21.95;11.63;;;-1.50;86.50;;;;;;6263947;22;20035;-71
2022/03/03 02:40:20;;;;;;;24.25;12.18;;;-1.40;87.60;;;;;;6264840;22;20093;-73
2022/03/03 02:42:51;;;;;;;18.45;11.27;;;-1.20;87.00;;;;;;6262725;22;20463;-71
2022/03/03 02:45:17;;;;;;;20.40;11.73;;;-1.10;87.30;;;;;;6264516;22;20000;-71
2022/03/03 02:47:47;;;;;;;24.70;14.00;;;-1.00;85.90;;;;;;6264170;22;20083;-72
2022/03/03 02:50:15;;;;;;;23.15;12.65;;;-0.90;86.10;;;;;;6262441;22;20318;-71
2022/03/03 02:52:41;;;;;;;17.63;10.15;;;-0.90;86.00;;;;;;6262820;22;20075;-72
2022/03/03 02:55:08;;;;;;;14.82;9.00;;;-0.90;84.80;;;;;;6263040;22;20054;-71
2022/03/03 03:00:18;;;;;;;18.70;9.65;;;-1.10;83.60;;;;;;6261826;22;20317;-71
2022/03/03 03:02:44;;;;;;;15.93;9.88;;;-1.30;84.50;;;;;;6261515;22;20004;-72
2022/03/03 03:05:10;;;;;;;15.70;9.88;;;-1.40;86.70;;;;;;6262358;22;20004;-72
2022/03/03 03:07:36;;;;;;;18.05;10.38;;;-1.40;87.00;;;;;;6264828;22;20031;-71
2022/03/03 03:10:04;;;;;;;15.77;9.82;;;-1.40;87.70;;;;;;6262066;22;20083;-71
2022/03/03 03:12:30;;;;;;;20.00;10.55;;;-1.40;87.80;;;;;;6264356;22;20008;-72
2022/03/03 03:14:55;;;;;;;19.25;10.27;;;-1.50;87.80;;;;;;6264082;22;20012;-72
2022/03/03 03:17:22;;;;;;;13.55;9.27;;;-1.40;87.80;;;;;;6264488;22;20083;-71
2022/03/03 03:19:47;;;;;;;14.32;8.50;;;-1.50;87.70;;;;;;6264466;22;20003;-72
2022/03/03 03:22:13;;;;;;;15.55;8.20;;;-1.50;87.50;;;;;;6263865;22;20071;-71
2022/03/03 03:24:39;;;;;;;14.65;8.63;;;-1.60;87.50;;;;;;6263941;22;20085;-72
2022/03/03 03:27:04;;;;;;;17.30;8.88;;;-1.60;87.80;;;;;;6263901;22;20078;-71
2022/03/03 03:29:30;;;;;;;23.42;10.50;;;-1.60;87.90;;;;;;6265508;22;20015;-71
2022/03/03 03:31:56;;;;;;;15.23;8.95;;;-1.60;89.20;;;;;;6264437;22;20703;-71
2022/03/03 03:34:21;;;;;;;14.93;8.93;;;-1.60;89.40;;;;;;6265090;22;20012;-72
2022/03/03 03:36:47;;;;;;;14.63;8.65;;;-1.70;88.60;;;;;;6265357;22;20006;-72
2022/03/03 03:39:13;;;;;;;13.25;8.57;;;-1.90;90.20;;;;;;6264819;22;20023;-71
2022/03/03 03:41:39;;;;;;;16.40;9.82;;;-1.90;90.50;;;;;;6265589;22;20010;-72
2022/03/03 03:44:05;;;;;;;18.17;9.95;;;-1.70;90.30;;;;;;6265938;22;20024;-71
2022/03/03 03:46:30;;;;;;;16.88;9.00;;;-1.60;90.50;;;;;;6265215;22;20070;-72
2022/03/03 03:48:56;;;;;;;14.65;8.30;;;-1.50;88.40;;;;;;6265778;22;20463;-72
2022/03/03 03:51:22;;;;;;;15.68;8.68;;;-1.60;85.90;;;;;;6265824;22;20008;-71
2022/03/03 03:53:47;;;;;;;14.90;9.63;;;-1.70;88.20;;;;;;6265509;22;20035;-72
2022/03/03 03:56:13;;;;;;;17.75;12.55;;;-1.80;88.20;;;;;;6235745;22;20761;-72
2022/03/03 03:58:39;;;;;;;14.52;8.52;;;-1.80;88.00;;;;;;6265223;22;20095;-71
2022/03/03 04:01:04;;;;;;;12.65;8.10;;;-1.90;88.50;;;;;;6263426;22;20425;-72
2022/03/03 04:03:30;;;;;;;14.45;9.20;;;-2.00;88.90;;;;;;6263706;22;20019;-72
2022/03/03 04:05:56;;;;;;;12.10;8.40;;;-1.90;88.60;;;;;;6264109;22;20530;-71
2022/03/03 04:08:21;;;;;;;13.15;7.78;;;-1.90;88.60;;;;;;6263717;22;20007;-72
2022/03/03 04:10:47;;;;;;;13.20;7.35;;;-1.80;87.80;;;;;;6264072;22;20008;-72
2022/03/03 04:13:15;;;;;;;11.20;7.82;;;-1.90;86.30;;;;;;6262468;22;20012;-72
2022/03/03 04:15:41;;;;;;;15.60;7.15;;;-2.10;87.20;;;;;;6263828;22;20011;-72
2022/03/03 04:18:07;;;;;;;14.63;7.72;;;-2.30;88.80;;;;;;6263001;22;20054;-73
2022/03/03 04:20:33;;;;;;;12.15;8.20;;;-2.30;90.00;;;;;;6263221;22;20015;-72
2022/03/03 04:22:59;;;;;;;14.07;8.38;;;-2.30;89.90;;;;;;6263513;22;20034;-72
2022/03/03 04:25:25;;;;;;;12.90;7.78;;;-2.20;90.30;;;;;;6263575;22;20025;-72
2022/03/03 04:27:51;;;;;;;16.92;9.48;;;-2.10;90.00;;;;;;6263181;22;20491;-72
2022/03/03 04:30:16;;;;;;;13.70;8.30;;;-2.00;89.80;;;;;;6264157;22;20012;-72
2022/03/03 04:32:42;;;;;;;17.60;8.30;;;-1.90;89.60;;;;;;6264044;22;20011;-72
2022/03/03 04:35:09;;;;;;;15.65;9.10;;;-1.70;89.20;;;;;;6264717;22;20012;-72
2022/03/03 04:37:36;;;;;;;12.95;8.63;;;-1.60;89.30;;;;;;6265541;22;20021;-72
2022/03/03 04:40:04;;;;;;;15.05;8.65;;;-1.60;88.70;;;;;;6266058;22;20018;-72
2022/03/03 04:42:30;;;;;;;15.15;8.90;;;-1.40;88.00;;;;;;6265059;22;20007;-72
2022/03/03 04:44:56;;;;;;;13.32;7.05;;;-1.20;88.00;;;;;;6264449;22;20326;-72
2022/03/03 04:47:21;;;;;;;12.40;7.20;;;-1.40;87.30;;;;;;6266278;22;20011;-69
2022/03/03 04:49:47;;;;;;;16.98;8.65;;;-1.50;86.70;;;;;;6264819;22;20469;-69
2022/03/03 04:52:13;;;;;;;19.50;9.75;;;-1.70;88.50;;;;;;6265610;22;20023;-69
2022/03/03 04:54:39;;;;;;;18.15;10.27;;;-1.70;89.10;;;;;;6265341;22;20548;-69
2022/03/03 04:57:05;;;;;;;15.35;8.60;;;-1.70;90.00;;;;;;6265468;22;20004;-69
2022/03/03 04:59:30;;;;;;;13.00;7.35;;;-1.80;90.60;;;;;;6237500;22;20007;-69
2022/03/03 05:01:56;;;;;;;12.38;7.25;;;-1.90;90.60;;;;;;6263828;22;20750;-69
2022/03/03 05:04:22;;;;;;;12.85;6.15;;;-1.90;89.30;;;;;;6264611;22;20004;-69
2022/03/03 05:06:50;;;;;;;17.75;9.48;;;-2.00;90.10;;;;;;6265385;22;20003;-70
2022/03/03 05:09:16;;;;;;;24.85;12.95;;;-2.00;90.10;;;;;;6264089;22;20758;-69
2022/03/03 05:11:43;;;;;;;13.55;8.80;;;-1.90;90.10;;;;;;6264841;22;20007;-69
2022/03/03 05:14:09;;;;;;;14.43;8.20;;;-1.80;89.80;;;;;;6264374;22;20110;-69
2022/03/03 05:16:34;;;;;;;12.32;7.18;;;-1.90;88.90;;;;;;6265416;22;20089;-69
2022/03/03 05:19:00;;;;;;;10.93;6.65;;;-2.00;89.00;;;;;;6263500;22;20358;-69
2022/03/03 05:21:26;;;;;;;15.52;8.27;;;-2.30;88.10;;;;;;6262282;22;20011;-69
2022/03/03 05:23:52;;;;;;;11.50;6.85;;;-2.50;89.10;;;;;;6266520;22;20039;-68
2022/03/03 05:26:18;;;;;;;18.65;10.05;;;-2.50;90.00;;;;;;6264934;22;20004;-68
2022/03/03 05:28:44;;;;;;;21.23;11.13;;;-2.40;90.20;;;;;;6265538;22;20087;-68
2022/03/03 05:31:09;;;;;;;24.23;10.48;;;-2.60;90.40;;;;;;6264200;22;20575;-68
2022/03/03 05:33:35;;;;;;;32.80;14.25;;;-2.60;91.00;;;;;;6265092;22;20016;-68
2022/03/03 05:36:07;;;;;;;27.63;16.05;;;-2.50;91.00;;;;;;6263923;22;20082;-69
2022/03/03 05:38:33;;;;;;;;;;;-2.40;91.10;;;;;;6237689;22;20023;-67
2022/03/03 05:41:00;;;;;;;16.17;9.68;;;-2.40;90.80;;;;;;6264578;22;20393;-68
2022/03/03 05:43:26;;;;;;;22.17;11.48;;;-2.40;90.40;;;;;;6264435;22;20416;-67
2022/03/03 05:45:53;;;;;;;19.52;10.85;;;-2.50;90.70;;;;;;6264857;22;20014;-67
2022/03/03 05:48:20;;;;;;;24.85;12.68;;;-2.40;90.70;;;;;;6263411;22;20008;-67
2022/03/03 05:50:47;;;;;;;19.83;11.45;;;-2.40;91.00;;;;;;6262916;22;20023;-67
2022/03/03 05:53:13;;;;;;;22.63;11.65;;;-2.40;90.80;;;;;;6263877;22;20451;-67
2022/03/03 05:55:43;;;;;;;24.25;12.68;;;-2.40;91.30;;;;;;6262243;22;20171;-67
2022/03/03 05:58:15;;;;;;;23.30;12.65;;;-2.30;91.30;;;;;;6263067;22;20003;-67
2022/03/03 06:00:47;;;;;;;29.73;15.75;;;-2.20;91.20;;;;;;6264273;22;20046;-69
2022/03/03 06:03:14;;;;;;;;;;;-2.10;91.20;;;;;;6264704;22;20398;-67
2022/03/03 06:05:41;;;;;;;23.58;11.73;;;-2.10;91.60;;;;;;6262428;22;19990;-68
2022/03/03 06:08:15;;;;;;;18.48;11.13;;;-1.90;91.20;;;;;;6261878;22;20070;-68
2022/03/03 06:10:46;;;;;;;22.40;12.18;;;-1.80;91.40;;;;;;6264938;22;20004;-67
2022/03/03 06:13:25;;;;;;;23.27;12.65;;;-1.70;91.10;;;;;;6262647;22;20321;-67
2022/03/03 06:15:52;;;;;;;35.60;16.20;;;-1.60;90.60;;;;;;6263727;22;20007;-67
2022/03/03 06:18:28;;;;;;;31.73;16.17;;;-1.50;90.00;;;;;;6237776;22;20010;-68
2022/03/03 06:20:54;;;;;;;27.77;14.23;;;-1.40;90.00;;;;;;6263920;22;20004;-68
2022/03/03 06:23:20;;;;;;;30.23;15.32;;;-1.40;90.40;;;;;;6265457;22;20029;-68
2022/03/03 06:26:02;;;;;;;25.95;15.20;;;-1.30;90.30;;;;;;6265384;22;20702;-68
2022/03/03 06:28:28;;;;;;;33.75;18.00;;;-1.30;90.10;;;;;;6262960;22;20014;-68
2022/03/03 06:30:54;;;;;;;42.53;22.10;;;-1.20;90.00;;;;;;6237160;22;20008;-68
2022/03/03 06:33:20;;;;;;;39.08;19.92;;;-1.20;89.90;;;;;;6264281;22;20019;-68
2022/03/03 06:35:45;;;;;;;35.63;18.70;;;-1.00;90.30;;;;;;6264600;22;20012;-68
2022/03/03 06:38:11;;;;;;;47.80;20.38;;;-0.80;89.90;;;;;;6263934;22;20000;-68
2022/03/03 06:40:37;;;;;;;95.78;27.02;;;-0.90;89.80;;;;;;6264374;22;20011;-69
2022/03/03 06:43:03;;;;;;;40.45;25.85;;;-1.00;90.20;;;;;;6264487;22;20557;-70
2022/03/03 06:45:30;;;;;;;33.65;19.20;;;-1.20;91.00;;;;;;6264794;22;20018;-69
2022/03/03 06:47:58;;;;;;;31.73;18.65;;;-1.20;91.40;;;;;;6263073;22;20035;-69
2022/03/03 06:50:24;;;;;;;28.20;16.90;;;-1.10;91.00;;;;;;6264453;22;20011;-68
2022/03/03 06:52:51;;;;;;;27.23;15.52;;;-1.00;91.40;;;;;;6264494;22;20004;-70
2022/03/03 06:55:22;;;;;;;23.83;15.00;;;-0.80;91.70;;;;;;6266677;22;20433;-71
2022/03/03 06:57:54;;;;;;;42.63;23.85;;;-0.60;91.30;;;;;;6263654;22;20004;-70
2022/03/03 07:00:20;;;;;;;;;;;-0.30;91.30;;;;;;6265137;22;20064;-71
2022/03/03 07:02:47;;;;;;;46.28;24.33;;;0.00;91.20;;;;;;6265536;22;20213;-71
2022/03/03 07:05:15;;;;;;;36.38;20.58;;;0.30;90.10;;;;;;6266029;22;20388;-71
2022/03/03 07:07:43;;;;;;;34.40;22.40;;;0.50;88.70;;;;;;6239215;22;20004;-71
2022/03/03 07:10:10;;;;;;;27.73;17.92;;;0.60;88.60;;;;;;6263998;22;20339;-70
2022/03/03 07:12:36;;;;;;;32.13;17.75;;;0.90;86.90;;;;;;6267462;22;20014;-74
2022/03/03 07:15:02;;;;;;;30.83;17.80;;;1.10;85.60;;;;;;6264290;22;20102;-72
2022/03/03 07:17:36;;;;;;;30.95;15.88;;;1.40;84.60;;;;;;6265897;22;20373;-72
2022/03/03 07:20:04;;;;;;;26.23;15.15;;;1.50;83.00;;;;;;6265435;22;20000;-72
2022/03/03 07:22:38;;;;;;;32.75;16.17;;;1.60;80.90;;;;;;6265871;22;20078;-72
2022/03/03 07:25:09;;;;;;;33.03;18.42;;;1.60;81.30;;;;;;6265817;22;20042;-73
2022/03/03 07:27:39;;;;;;;40.85;17.67;;;1.80;81.50;;;;;;6266537;22;20016;-72
2022/03/03 07:30:07;;;;;;;34.70;17.92;;;2.00;81.40;;;;;;6266024;22;20012;-72
2022/03/03 07:32:39;;;;;;;38.90;14.55;;;2.30;80.10;;;;;;6266060;22;20010;-72
2022/03/03 07:35:12;;;;;;;;;;;2.40;78.90;;;;;;6266471;22;20011;-71
2022/03/03 07:37:49;;;;;;;29.48;15.20;;;2.70;77.90;;;;;;6265006;22;19934;-71
2022/03/03 07:40:17;;;;;;;31.02;16.40;;;2.90;76.80;;;;;;6263614;22;20003;-70
2022/03/03 07:42:42;;;;;;;29.33;15.73;;;3.00;76.20;;;;;;6264770;22;20015;-70
2022/03/03 07:45:08;;;;;;;26.83;15.82;;;3.10;76.00;;;;;;6265318;22;20012;-70
2022/03/03 07:47:35;;;;;;;30.30;16.73;;;3.30;76.30;;;;;;6266110;22;20049;-70
2022/03/03 07:50:02;;;;;;;39.10;20.75;;;3.40;75.60;;;;;;6265139;22;20348;-71
2022/03/03 07:52:28;;;;;;;32.40;19.35;;;3.40;75.40;;;;;;6239334;22;19999;-71
2022/03/03 07:54:55;;;;;;;30.45;17.38;;;3.50;76.10;;;;;;6264408;22;20527;-71
2022/03/03 07:57:22;;;;;;;29.50;18.67;;;3.70;75.00;;;;;;6266726;22;20004;-72
2022/03/03 07:59:56;;;;;;;31.20;18.92;;;3.70;75.30;;;;;;6264574;22;20092;-71
2022/03/03 08:02:23;;;;;;;32.25;18.13;;;4.10;75.90;;;;;;6266234;22;19996;-69
2022/03/03 08:04:51;;;;;;;32.20;17.65;;;4.40;74.30;;;;;;6263943;22;20007;-68
2022/03/03 08:07:18;;;;;;;35.58;19.88;;;4.70;72.90;;;;;;6266115;22;20011;-68
2022/03/03 08:09:47;;;;;;;32.03;17.35;;;4.80;72.40;;;;;;6264925;22;20050;-67
2022/03/03 08:12:15;;;;;;;29.27;16.85;;;5.10;71.40;;;;;;6264575;22;20082;-68
2022/03/03 08:14:41;;;;;;;24.73;15.50;;;5.40;70.70;;;;;;6265056;22;20437;-68
2022/03/03 08:17:08;;;;;;;22.27;13.10;;;5.60;68.40;;;;;;6265032;22;19995;-68
2022/03/03 08:19:33;;;;;;;19.50;13.00;;;5.50;69.20;;;;;;6264231;22;20026;-68
2022/03/03 08:21:59;;;;;;;21.83;12.68;;;5.60;68.40;;;;;;6236838;22;20011;-68
2022/03/03 08:24:26;;;;;;;19.23;12.23;;;5.60;69.10;;;;;;6264359;22;20011;-68
2022/03/03 08:26:55;;;;;;;16.55;10.95;;;5.70;67.90;;;;;;6264871;22;20012;-68
2022/03/03 08:29:21;;;;;;;14.88;10.43;;;5.90;67.20;;;;;;6264428;22;20103;-67
2022/03/03 08:31:53;;;;;;;17.30;11.07;;;6.20;65.20;;;;;;6264477;22;20077;-66
2022/03/03 08:34:33;;;;;;;17.35;11.48;;;6.40;64.10;;;;;;6263380;22;20012;-68
2022/03/03 08:37:02;;;;;;;19.90;11.98;;;6.50;65.60;;;;;;6263115;22;20368;-67
2022/03/03 08:39:30;;;;;;;14.05;10.13;;;6.70;64.10;;;;;;6264744;22;20089;-68
2022/03/03 08:41:59;;;;;;;17.20;10.18;;;6.60;62.10;;;;;;6264808;22;20004;-67
2022/03/03 08:44:31;;;;;;;14.20;9.60;;;6.40;62.50;;;;;;6264571;22;20022;-68
2022/03/03 08:47:01;;;;;;;14.23;8.82;;;6.40;63.90;;;;;;6264829;22;20004;-68
2022/03/03 08:49:32;;;;;;;13.15;9.13;;;6.40;62.00;;;;;;6266016;22;20337;-68
2022/03/03 08:51:57;;;;;;;14.18;9.52;;;6.40;62.20;;;;;;6238558;22;20085;-67
2022/03/03 08:54:23;;;;;;;14.15;8.63;;;6.30;63.00;;;;;;6264453;22;20086;-67
2022/03/03 08:56:49;;;;;;;12.88;8.32;;;6.30;61.90;;;;;;6265815;22;20003;-68
2022/03/03 08:59:14;;;;;;;12.85;8.27;;;6.30;62.00;;;;;;6263850;22;20023;-68
2022/03/03 09:01:40;;;;;;;15.05;8.50;;;6.30;61.60;;;;;;6264610;22;20358;-68
2022/03/03 09:04:07;;;;;;;17.00;7.70;;;6.50;61.60;;;;;;6264456;22;20016;-68
2022/03/03 09:06:34;;;;;;;13.15;7.88;;;6.50;61.10;;;;;;6265989;22;20049;-69
2022/03/03 09:09:00;;;;;;;12.18;8.40;;;6.60;60.60;;;;;;6237431;22;20463;-68
2022/03/03 09:11:26;;;;;;;26.50;16.13;;;6.60;60.40;;;;;;6265747;22;20000;-68
2022/03/03 09:13:51;;;;;;;25.17;15.70;;;6.50;60.50;;;;;;6264385;22;20046;-68
2022/03/03 09:16:17;;;;;;;11.77;8.00;;;6.50;61.20;;;;;;6264872;22;20504;-70
2022/03/03 09:18:47;;;;;;;10.93;7.63;;;6.60;60.90;;;;;;6265146;22;20377;-69
2022/03/03 09:21:14;;;;;;;12.98;8.45;;;6.80;61.50;;;;;;6263560;22;20058;-69
2022/03/03 09:23:40;;;;;;;14.98;9.48;;;7.20;59.80;;;;;;6263617;22;20436;-70
2022/03/03 09:26:06;;;;;;;11.57;7.78;;;7.50;59.10;;;;;;6265748;22;20567;-69
2022/03/03 09:28:32;;;;;;;13.68;9.15;;;7.70;58.50;;;;;;6265333;22;20012;-69
2022/03/03 09:30:57;;;;;;;12.90;8.60;;;7.50;58.10;;;;;;6263987;22;20008;-69
2022/03/03 09:33:24;;;;;;;12.10;9.48;;;7.40;58.70;;;;;;6264919;22;20012;-69
2022/03/03 09:35:50;;;;;;;14.50;10.00;;;7.40;58.90;;;;;;6263899;22;20004;-71
2022/03/03 09:38:16;;;;;;;16.02;11.18;;;7.40;58.60;;;;;;6264293;22;20006;-70
2022/03/03 09:40:43;;;;;;;11.05;7.40;;;7.40;58.20;;;;;;6264416;22;20012;-68
2022/03/03 09:43:08;;;;;;;11.00;8.20;;;7.40;58.20;;;;;;6264460;22;20066;-67
2022/03/03 09:45:36;;;;;;;16.30;9.07;;;7.60;58.20;;;;;;6264421;22;20758;-67
2022/03/03 09:48:09;;;;;;;22.75;14.98;;;7.60;58.80;;;;;;6265495;22;20070;-67
2022/03/03 09:50:40;;;;;;;15.55;9.13;;;7.70;58.50;;;;;;6264149;22;20092;-67
2022/03/03 09:53:10;;;;;;;16.67;10.43;;;7.70;57.00;;;;;;6264027;22;20400;-67
2022/03/03 09:55:38;;;;;;;12.27;8.15;;;7.80;57.40;;;;;;6238004;22;20011;-68
2022/03/03 09:58:06;;;;;;;11.68;7.78;;;7.90;57.00;;;;;;6264516;22;20020;-68
2022/03/03 10:00:36;;;;;;;13.48;7.88;;;7.80;56.90;;;;;;6263981;22;20086;-68
2022/03/03 10:03:14;;;;;;;13.02;7.88;;;7.90;56.40;;;;;;6262211;22;20076;-68
2022/03/03 10:05:42;;;;;;;11.65;8.07;;;7.80;56.10;;;;;;6236812;22;20008;-68
2022/03/03 10:08:13;;;;;;;15.07;8.88;;;8.00;56.00;;;;;;6264656;22;20076;-68
2022/03/03 10:10:41;;;;;;;13.80;9.60;;;8.40;55.80;;;;;;6264253;22;20015;-68
2022/03/03 10:13:08;;;;;;;12.60;8.23;;;8.50;54.30;;;;;;6263605;22;20013;-68
2022/03/03 10:15:35;;;;;;;11.65;8.35;;;8.40;54.50;;;;;;6263056;22;20035;-68
2022/03/03 10:18:12;;;;;;;17.85;9.15;;;8.30;55.10;;;;;;6261934;22;20004;-68
2022/03/03 10:20:59;;;;;;;78.65;56.67;;;8.20;55.30;;;;;;6264051;22;20004;-68
2022/03/03 10:23:27;;;;;;;66.32;50.17;;;8.30;55.50;;;;;;6263745;22;20011;-67
2022/03/03 10:25:54;;;;;;;29.70;19.20;;;8.30;55.90;;;;;;6262020;22;20218;-66
2022/03/03 10:28:29;;;;;;;14.68;8.57;;;8.40;55.10;;;;;;6263520;22;20092;-67
2022/03/03 10:31:04;;;;;;;12.52;8.18;;;8.50;55.10;;;;;;6262926;22;20030;-68
2022/03/03 10:33:41;;;;;;;11.85;8.23;;;8.30;54.70;;;;;;6265534;22;20568;-68
2022/03/03 10:36:16;;;;;;;31.73;28.52;;;8.20;55.30;;;;;;6264166;22;20457;-68
2022/03/03 10:38:58;;;;;;;26.67;20.50;;;8.20;55.10;;;;;;6266821;22;20114;-68
2022/03/03 10:41:29;;;;;;;16.67;12.00;;;8.50;55.00;;;;;;6263833;22;20008;-69
2022/03/03 10:43:55;;;;;;;11.52;8.55;;;8.70;54.20;;;;;;6265641;22;20038;-68
2022/03/03 10:46:21;;;;;;;11.02;8.18;;;8.60;53.40;;;;;;6265336;22;20004;-68
2022/03/03 10:48:47;;;;;;;13.25;9.50;;;8.50;54.10;;;;;;6266285;22;20709;-67
2022/03/03 10:51:16;;;;;;;22.63;14.98;;;8.40;53.40;;;;;;6264626;22;20000;-67
2022/03/03 10:53:42;;;;;;;17.30;12.52;;;8.60;54.40;;;;;;6265072;22;20537;-67
2022/03/03 10:56:18;;;;;;;18.17;12.30;;;8.70;53.50;;;;;;6265231;22;20011;-68
2022/03/03 10:58:52;;;;;;;15.95;11.57;;;8.70;52.80;;;;;;6266801;22;20336;-67
2022/03/03 11:01:20;;;;;;;15.68;11.30;;;8.70;53.60;;;;;;6265065;22;20027;-68
2022/03/03 11:03:50;;;;;;;16.70;11.45;;;8.80;53.20;;;;;;6266601;22;20007;-67
2022/03/03 11:06:24;;;;;;;14.32;9.18;;;8.90;53.00;;;;;;6266140;22;20687;-65
2022/03/03 11:08:52;;;;;;;16.67;9.90;;;8.90;51.70;;;;;;6265885;22;20014;-63
2022/03/03 11:11:20;;;;;;;15.07;10.25;;;8.60;52.40;;;;;;6264436;22;20329;-64
2022/03/03 11:13:50;;;;;;;11.77;9.20;;;8.60;53.20;;;;;;6265412;22;20003;-64
2022/03/03 11:16:17;;;;;;;14.20;9.23;;;8.60;52.60;;;;;;6265739;22;20011;-65
2022/03/03 11:18:44;;;;;;;13.77;9.90;;;8.40;52.80;;;;;;6266013;22;20025;-64
2022/03/03 11:21:10;;;;;;;15.15;8.50;;;8.10;53.30;;;;;;6264509;22;20355;-65
2022/03/03 11:23:40;;;;;;;14.23;9.77;;;8.20;53.80;;;;;;6265253;22;20008;-65
2022/03/03 11:26:28;;;;;;;32.50;21.95;;;8.30;53.50;;;;;;6266388;22;20014;-65
2022/03/03 11:28:59;;;;;;;15.05;10.13;;;8.20;53.50;;;;;;6248750;22;20027;-64
2022/03/03 11:31:31;;;;;;;32.45;21.40;;;8.30;53.00;;;;;;6265591;22;20007;-64
2022/03/03 11:34:27;;;;;;;22.70;14.98;;;8.40;53.70;;;;;;6264610;22;20083;-64
2022/03/03 11:37:02;;;;;;;15.98;12.13;;;8.50;53.50;;;;;;6263844;22;20003;-64
2022/03/03 11:39:52;;;;;;;15.05;9.80;;;8.60;53.20;;;;;;6265560;22;20383;-64
2022/03/03 11:42:22;;;;;;;17.67;13.75;;;8.70;53.10;;;;;;6264308;22;20459;-64
2022/03/03 11:44:49;;;;;;;20.83;14.85;;;8.60;52.90;;;;;;6265206;22;20332;-65
2022/03/03 11:47:31;;;;;;;17.63;12.73;;;8.70;52.90;;;;;;6265256;22;20008;-64
2022/03/03 11:50:25;;;;;;;15.75;11.23;;;9.10;52.70;;;;;;6264632;22;20023;-65
2022/03/03 11:53:11;;;;;;;17.50;12.45;;;9.20;51.80;;;;;;6256081;22;20007;-65
2022/03/03 11:55:45;;;;;;;21.40;10.70;;;9.30;51.80;;;;;;6266420;22;20356;-64
2022/03/03 11:58:27;;;;;;;14.13;10.52;;;9.40;52.60;;;;;;6264829;22;20053;-63
2022/03/03 12:01:00;;;;;;;16.05;10.98;;;9.30;52.10;;;;;;6239158;22;20554;-64
2022/03/03 12:03:26;;;;;;;12.30;9.82;;;9.30;52.50;;;;;;6264778;22;19998;-64
2022/03/03 12:06:11;;;;;;;14.25;10.40;;;9.30;52.80;;;;;;6265842;22;20012;-64
2022/03/03 12:08:38;;;;;;;25.02;10.35;;;9.30;52.70;;;;;;6264374;22;20015;-64
2022/03/03 12:11:13;;;;;;;15.02;10.27;;;9.30;52.30;;;;;;6266042;22;20008;-62
2022/03/03 12:13:39;;;;;;;26.48;10.48;;;9.30;51.80;;;;;;6264480;22;20007;-69
2022/03/03 12:16:17;;;;;;;24.77;11.98;;;9.50;51.00;;;;;;6266185;22;20445;-64
2022/03/03 12:18:48;;;;;;;13.82;9.50;;;9.70;51.40;;;;;;6265635;22;20004;-64
2022/03/03 12:21:23;;;;;;;14.27;9.70;;;9.90;50.10;;;;;;6263952;22;20337;-65
2022/03/03 12:23:49;;;;;;;14.00;9.63;;;10.00;50.50;;;;;;6266592;22;19999;-66
2022/03/03 12:26:15;;;;;;;14.82;11.02;;;10.00;49.70;;;;;;6265687;22;20008;-65
2022/03/03 12:28:47;;;;;;;16.52;11.40;;;9.90;49.60;;;;;;6263846;22;20091;-65
2022/03/03 12:31:23;;;;;;;32.78;19.60;;;9.90;50.40;;;;;;6265304;22;20033;-65
2022/03/03 12:34:06;;;;;;;22.25;13.93;;;9.90;49.40;;;;;;6265512;22;20010;-65
2022/03/03 12:36:44;;;;;;;14.93;10.32;;;10.00;49.60;;;;;;6265553;22;20007;-66
2022/03/03 12:39:10;;;;;;;15.13;9.82;;;10.10;49.40;;;;;;6262347;22;20327;-66
2022/03/03 12:41:38;;;;;;;14.25;9.65;;;10.10;48.70;;;;;;6265825;22;20793;-66
2022/03/03 12:44:06;;;;;;;12.23;8.70;;;10.30;49.60;;;;;;6263416;22;20024;-66
2022/03/03 12:46:32;;;;;;;13.13;9.27;;;10.40;48.80;;;;;;6265989;22;20031;-65